createdAt,value
2019-04-04T00:00:34.800Z,6.37
2019-04-04T00:03:07.964Z,6.07
2019-04-04T00:05:35.066Z,5.63
2019-04-04T00:08:02.147Z,6.97
2019-04-04T00:10:29.246Z,6.83
2019-04-04T00:12:56.295Z,6.63
2019-04-04T00:15:23.332Z,6.17
2019-04-04T00:17:51.833Z,6.47
2019-04-04T00:20:19.356Z,7.23
2019-04-04T00:22:46.410Z,6.27
2019-04-04T00:25:13.509Z,6.47
2019-04-04T00:27:42.040Z,6.93
2019-04-04T00:30:09.866Z,7.90
2019-04-04T00:32:36.977Z,7.33
2019-04-04T00:35:04.293Z,7.57
2019-04-04T00:37:31.339Z,8.13
2019-04-04T00:39:58.404Z,8.33
2019-04-04T00:42:25.457Z,7.70
2019-04-04T00:44:53.878Z,7.13
2019-04-04T00:47:22.088Z,8.13
2019-04-04T00:49:49.191Z,7.70
2019-04-04T00:52:16.222Z,6.93
2019-04-04T00:54:44.923Z,7.30
2019-04-04T00:57:12.393Z,6.23
2019-04-04T00:59:39.531Z,7.73
2019-04-04T01:02:06.582Z,6.57
2019-04-04T01:04:33.622Z,5.87
2019-04-04T01:07:00.644Z,6.57
2019-04-04T01:09:27.714Z,7.37
2019-04-04T01:11:54.753Z,8.07
2019-04-04T01:14:21.770Z,7.57
2019-04-04T01:16:48.831Z,8.13
2019-04-04T01:19:15.909Z,7.60
2019-04-04T01:21:42.989Z,7.83
2019-04-04T01:24:10.041Z,8.87
2019-04-04T01:26:37.092Z,7.93
2019-04-04T01:29:05.913Z,8.23
2019-04-04T01:31:33.036Z,8.03
2019-04-04T01:34:00.186Z,8.63
2019-04-04T01:36:27.254Z,7.73
2019-04-04T01:38:54.388Z,8.03
2019-04-04T01:41:21.405Z,8.50
2019-04-04T01:43:48.450Z,8.03
2019-04-04T01:46:15.776Z,8.70
2019-04-04T01:48:42.870Z,8.53
2019-04-04T01:51:11.083Z,8.03
2019-04-04T01:53:38.162Z,7.53
2019-04-04T01:56:06.796Z,9.47
2019-04-04T01:58:34.134Z,8.70
2019-04-04T02:01:01.213Z,8.93
2019-04-04T02:03:28.261Z,8.33
2019-04-04T02:05:56.206Z,8.30
2019-04-04T02:08:24.479Z,7.37
2019-04-04T02:10:51.528Z,8.97
2019-04-04T02:13:18.598Z,8.73
2019-04-04T02:15:45.643Z,8.57
2019-04-04T02:18:12.741Z,8.67
2019-04-04T02:20:39.828Z,9.13
2019-04-04T02:23:06.871Z,8.00
2019-04-04T02:25:34.727Z,6.90
2019-04-04T02:28:02.029Z,6.83
2019-04-04T02:30:29.291Z,8.50
2019-04-04T02:32:59.412Z,9.10
2019-04-04T02:35:25.306Z,9.70
2019-04-04T02:37:54.982Z,9.97
2019-04-04T02:40:21.301Z,8.63
2019-04-04T02:42:48.393Z,9.27
2019-04-04T02:45:15.436Z,7.07
2019-04-04T02:47:42.488Z,6.83
2019-04-04T02:50:10.284Z,7.83
2019-04-04T02:52:37.315Z,8.33
2019-04-04T02:55:05.237Z,8.17
2019-04-04T02:57:32.311Z,9.17
2019-04-04T03:00:08.703Z,9.53
2019-04-04T03:02:36.907Z,8.97
2019-04-04T03:05:04.525Z,8.23
2019-04-04T03:07:31.633Z,8.43
2019-04-04T03:09:58.668Z,8.63
2019-04-04T03:12:26.844Z,8.87
2019-04-04T03:15:01.024Z,9.63
2019-04-04T03:17:33.142Z,8.03
2019-04-04T03:20:02.234Z,7.30
2019-04-04T03:22:31.730Z,10.37
2019-04-04T03:25:07.125Z,10.97
2019-04-04T03:27:45.769Z,10.73
2019-04-04T03:30:23.599Z,8.83
2019-04-04T03:32:58.659Z,7.83
2019-04-04T03:35:37.390Z,8.57
2019-04-04T03:38:16.072Z,9.57
2019-04-04T03:40:57.302Z,8.33
2019-04-04T03:43:35.025Z,8.57
2019-04-04T03:46:12.690Z,9.37
2019-04-04T03:48:52.606Z,10.63
2019-04-04T03:51:30.571Z,9.20
2019-04-04T03:54:07.624Z,9.57
2019-04-04T03:56:42.572Z,9.77
2019-04-04T03:59:17.932Z,11.40
2019-04-04T04:01:52.871Z,10.13
2019-04-04T04:04:51.959Z,10.13
2019-04-04T04:07:28.323Z,8.30
2019-04-04T04:10:04.203Z,10.87
2019-04-04T04:12:37.223Z,11.07
2019-04-04T04:15:12.311Z,9.50
2019-04-04T04:17:46.614Z,10.50
2019-04-04T04:20:20.343Z,11.23
2019-04-04T04:22:54.623Z,11.80
2019-04-04T04:25:30.112Z,10.83
2019-04-04T04:28:04.741Z,10.53
2019-04-04T04:30:40.623Z,9.43
2019-04-04T04:33:10.147Z,10.07
2019-04-04T04:35:44.022Z,10.80
2019-04-04T04:38:12.269Z,10.20
2019-04-04T04:40:42.029Z,10.57
2019-04-04T04:43:10.422Z,11.10
2019-04-04T04:45:41.687Z,10.97
2019-04-04T04:48:12.357Z,9.93
2019-04-04T04:50:40.472Z,10.17
2019-04-04T04:53:08.785Z,10.03
2019-04-04T04:55:36.436Z,9.23
2019-04-04T04:58:03.760Z,8.50
2019-04-04T05:00:30.841Z,8.77
2019-04-04T05:03:54.184Z,9.13
2019-04-04T05:06:22.255Z,9.17
2019-04-04T05:08:49.356Z,8.60
2019-04-04T05:11:19.688Z,8.67
2019-04-04T05:13:46.893Z,9.57
2019-04-04T05:16:13.974Z,9.87
2019-04-04T05:18:41.058Z,9.37
2019-04-04T05:21:08.243Z,9.60
2019-04-04T05:23:35.293Z,10.70
2019-04-04T05:26:03.205Z,10.57
2019-04-04T05:28:30.386Z,10.90
2019-04-04T05:30:57.851Z,10.73
2019-04-04T05:33:27.023Z,10.40
2019-04-04T05:35:54.147Z,10.80
2019-04-04T05:38:21.663Z,10.03
2019-04-04T05:40:48.812Z,10.17
2019-04-04T05:43:35.303Z,9.60
2019-04-04T05:46:08.454Z,10.43
2019-04-04T05:48:36.806Z,11.73
2019-04-04T05:51:03.890Z,11.10
2019-04-04T05:53:31.069Z,11.40
2019-04-04T05:55:58.084Z,10.17
2019-04-04T05:58:25.151Z,10.40
2019-04-04T06:00:52.365Z,10.73
2019-04-04T06:03:19.442Z,10.63
2019-04-04T06:05:46.487Z,11.37
2019-04-04T06:08:13.641Z,11.80
2019-04-04T06:10:40.704Z,9.27
2019-04-04T06:13:07.787Z,8.73
2019-04-04T06:15:34.853Z,8.73
2019-04-04T06:18:01.903Z,8.90
2019-04-04T06:20:29.008Z,10.37
2019-04-04T06:22:56.055Z,10.00
2019-04-04T06:25:23.092Z,11.00
2019-04-04T06:27:50.168Z,10.50
2019-04-04T06:30:18.127Z,9.93
2019-04-04T06:32:47.777Z,9.73
2019-04-04T06:35:15.443Z,10.47
2019-04-04T06:37:45.882Z,9.33
2019-04-04T06:40:14.243Z,10.27
2019-04-04T06:42:41.323Z,10.67
2019-04-04T06:45:08.538Z,10.63
2019-04-04T06:47:35.594Z,10.07
2019-04-04T06:50:23.011Z,9.57
2019-04-04T06:56:06.769Z,9.40
2019-04-04T06:58:33.787Z,10.30
2019-04-04T07:01:00.845Z,8.73
2019-04-04T07:03:28.120Z,10.07
2019-04-04T07:05:55.343Z,10.37
2019-04-04T07:08:22.438Z,9.97
2019-04-04T07:10:57.835Z,10.77
2019-04-04T07:13:22.128Z,10.63
2019-04-04T07:16:03.435Z,11.63
2019-04-04T07:18:16.390Z,11.37
2019-04-04T07:20:43.496Z,12.17
2019-04-04T07:23:10.649Z,11.47
2019-04-04T07:25:39.470Z,12.67
2019-04-04T07:28:06.787Z,10.97
2019-04-04T07:30:33.842Z,12.17
2019-04-04T07:33:00.900Z,11.90
2019-04-04T07:35:28.010Z,12.53
2019-04-04T07:37:57.482Z,12.87
2019-04-04T07:40:24.024Z,11.83
2019-04-04T07:42:51.231Z,10.60
2019-04-04T07:45:18.293Z,11.30
2019-04-04T07:47:47.501Z,10.27
2019-04-04T07:50:14.353Z,10.57
2019-04-04T07:52:41.415Z,9.70
2019-04-04T07:55:10.934Z,10.57
2019-04-04T07:57:37.701Z,10.20
2019-04-04T08:00:05.561Z,9.80
2019-04-04T08:02:32.658Z,9.60
2019-04-04T08:05:19.947Z,10.93
2019-04-04T08:08:05.427Z,9.73
2019-04-04T08:10:32.537Z,9.03
2019-04-04T08:12:59.582Z,9.03
2019-04-04T08:15:26.903Z,9.17
2019-04-04T08:17:54.010Z,8.73
2019-04-04T08:20:21.084Z,8.97
2019-04-04T08:22:48.248Z,9.03
2019-04-04T08:25:15.303Z,8.83
2019-04-04T08:27:42.398Z,8.43
2019-04-04T08:30:09.553Z,7.43
2019-04-04T08:32:36.637Z,7.10
2019-04-04T08:35:04.581Z,7.07
2019-04-04T08:37:31.711Z,8.07
2019-04-04T08:39:58.746Z,7.57
2019-04-04T08:42:25.825Z,8.40
2019-04-04T08:44:52.873Z,7.53
2019-04-04T08:47:56.601Z,7.27
2019-04-04T08:50:44.177Z,7.23
2019-04-04T08:53:11.232Z,7.20
2019-04-04T08:55:38.284Z,7.30
2019-04-04T08:58:05.481Z,7.70
2019-04-04T09:00:51.141Z,7.73
2019-04-04T09:03:18.227Z,7.47
2019-04-04T09:05:45.337Z,6.90
2019-04-04T09:08:12.516Z,7.40
2019-04-04T09:10:39.587Z,7.27
2019-04-04T09:13:06.687Z,7.73
2019-04-04T09:15:33.746Z,7.43
2019-04-04T09:18:00.811Z,6.57
2019-04-04T09:20:27.874Z,7.43
2019-04-04T09:22:55.361Z,6.63
2019-04-04T09:25:22.410Z,6.83
2019-04-04T09:27:49.501Z,7.37
2019-04-04T09:30:17.071Z,6.97
2019-04-04T09:32:44.159Z,8.10
2019-04-04T09:35:11.601Z,7.00
2019-04-04T09:37:38.698Z,7.47
2019-04-04T09:40:09.772Z,7.00
2019-04-04T09:42:36.824Z,6.63
2019-04-04T09:45:04.839Z,5.87
2019-04-04T09:47:31.916Z,7.07
2019-04-04T09:49:58.973Z,7.53
2019-04-04T09:52:26.514Z,7.00
2019-04-04T09:54:53.600Z,6.30
2019-04-04T09:57:20.755Z,6.73
2019-04-04T09:59:47.798Z,6.43
2019-04-04T10:02:15.005Z,6.67
2019-04-04T10:04:42.056Z,6.27
2019-04-04T10:07:09.270Z,7.10
2019-04-04T10:09:36.362Z,7.60
2019-04-04T10:12:03.423Z,6.77
2019-04-04T10:14:30.546Z,6.87
2019-04-04T10:16:57.725Z,6.77
2019-04-04T10:19:24.780Z,7.10
2019-04-04T10:21:51.855Z,6.60
2019-04-04T10:24:19.997Z,7.37
2019-04-04T10:26:47.052Z,7.10
2019-04-04T10:29:14.148Z,6.73
2019-04-04T10:31:41.311Z,6.60
2019-04-04T10:34:08.353Z,7.90
2019-04-04T10:36:35.452Z,7.93
2019-04-04T10:39:04.850Z,7.83
2019-04-04T10:41:32.025Z,7.77
2019-04-04T10:43:59.075Z,7.40
2019-04-04T10:46:26.337Z,7.20
2019-04-04T10:48:53.518Z,7.33
2019-04-04T10:51:20.564Z,7.23
2019-04-04T10:53:47.671Z,8.00
2019-04-04T10:56:14.725Z,7.40
2019-04-04T10:58:41.783Z,7.43
2019-04-04T11:01:08.851Z,7.20
2019-04-04T11:03:54.370Z,7.37
2019-04-04T11:06:21.450Z,8.17
2019-04-04T11:08:48.559Z,8.30
2019-04-04T11:11:15.593Z,8.30
2019-04-04T11:13:42.750Z,9.30
2019-04-04T11:16:09.853Z,8.73
2019-04-04T11:18:36.898Z,10.27
2019-04-04T11:21:04.089Z,10.23
2019-04-04T11:23:31.142Z,13.03
2019-04-04T11:25:58.499Z,14.10
2019-04-04T11:28:25.584Z,13.93
2019-04-04T11:30:52.662Z,15.70
2019-04-04T11:33:19.715Z,16.93
2019-04-04T11:35:46.817Z,17.87
2019-04-04T11:38:13.866Z,18.43
2019-04-04T11:40:40.914Z,15.93
2019-04-04T11:43:08.016Z,18.17
2019-04-04T11:45:35.116Z,16.93
2019-04-04T11:48:25.499Z,15.57
2019-04-04T11:50:52.545Z,16.13
2019-04-04T11:53:19.950Z,16.27
2019-04-04T11:55:47.206Z,17.73
2019-04-04T11:58:14.269Z,16.83
2019-04-04T12:00:42.725Z,16.20
2019-04-04T12:03:09.868Z,15.37
2019-04-04T12:05:36.939Z,15.20
2019-04-04T12:08:04.175Z,17.03
2019-04-04T12:10:31.338Z,16.03
2019-04-04T12:12:58.786Z,16.97
2019-04-04T12:15:25.945Z,14.73
2019-04-04T12:17:53.028Z,11.60
2019-04-04T12:20:20.088Z,10.90
2019-04-04T12:22:47.145Z,10.63
2019-04-04T12:25:14.229Z,11.27
2019-04-04T12:27:41.306Z,10.07
2019-04-04T12:30:08.795Z,11.67
2019-04-04T12:32:35.887Z,11.90
2019-04-04T12:35:04.758Z,12.13
2019-04-04T12:37:31.823Z,15.03
2019-04-04T12:39:58.891Z,14.43
2019-04-04T12:42:25.970Z,16.27
2019-04-04T12:44:53.065Z,16.10
2019-04-04T12:47:20.110Z,15.87
2019-04-04T12:49:47.196Z,16.23
2019-04-04T12:52:14.251Z,15.83
2019-04-04T12:54:41.376Z,16.37
2019-04-04T12:57:08.450Z,17.00
2019-04-04T12:59:35.596Z,18.00
2019-04-04T13:02:02.716Z,17.27
2019-04-04T13:04:31.876Z,19.03
2019-04-04T13:06:58.859Z,16.37
2019-04-04T13:09:26.038Z,15.53
2019-04-04T13:11:53.380Z,16.03
2019-04-04T13:14:57.088Z,15.80
2019-04-04T13:17:24.143Z,16.57
2019-04-04T13:19:51.218Z,17.67
2019-04-04T13:22:18.322Z,18.27
2019-04-04T13:24:45.375Z,19.17
2019-04-04T13:27:12.496Z,19.27
2019-04-04T13:29:39.594Z,19.63
2019-04-04T13:32:06.663Z,20.03
2019-04-04T13:34:33.888Z,19.33
2019-04-04T13:37:01.200Z,21.47
2019-04-04T13:39:28.351Z,22.00
2019-04-04T13:41:55.400Z,23.03
2019-04-04T13:44:23.586Z,22.50
2019-04-04T13:46:51.243Z,23.00
2019-04-04T13:49:18.313Z,22.03
2019-04-04T13:51:45.490Z,20.10
2019-04-04T13:54:12.618Z,21.77
2019-04-04T13:56:39.856Z,21.73
2019-04-04T13:59:06.930Z,21.97
2019-04-04T14:01:34.004Z,22.37
2019-04-04T14:04:01.069Z,24.67
2019-04-04T14:07:23.452Z,24.43
2019-04-04T14:09:50.695Z,22.17
2019-04-04T14:12:17.738Z,24.87
2019-04-04T14:14:44.949Z,26.13
2019-04-04T14:17:18.326Z,26.13
2019-04-04T14:20:11.558Z,25.20
2019-04-04T14:22:38.631Z,26.23
2019-04-04T14:25:06.411Z,26.20
2019-04-04T14:27:33.637Z,26.77
2019-04-04T14:30:00.809Z,27.10
2019-04-04T14:32:27.979Z,27.40
2019-04-04T14:34:55.083Z,28.00
2019-04-04T14:37:22.137Z,27.90
2019-04-04T14:39:49.469Z,28.57
2019-04-04T14:42:16.521Z,26.57
2019-04-04T14:44:43.607Z,27.77
2019-04-04T14:47:49.537Z,28.17
2019-04-04T14:50:16.613Z,27.63
2019-04-04T14:52:43.685Z,27.43
2019-04-04T14:55:10.801Z,26.33
2019-04-04T14:57:37.890Z,24.77
2019-04-04T15:00:15.593Z,25.93
2019-04-04T15:02:42.385Z,26.73
2019-04-04T15:05:10.564Z,25.00
2019-04-04T15:07:56.013Z,24.77
2019-04-04T15:10:23.104Z,23.80
2019-04-04T15:12:51.411Z,24.23
2019-04-04T15:15:18.536Z,23.23
2019-04-04T15:17:45.912Z,24.07
2019-04-04T15:20:13.410Z,25.03
2019-04-04T15:22:40.618Z,25.37
2019-04-04T15:25:07.710Z,25.20
2019-04-04T15:27:34.938Z,25.00
2019-04-04T15:30:02.223Z,25.60
2019-04-04T15:32:29.359Z,25.37
2019-04-04T15:34:56.437Z,25.30
2019-04-04T15:37:24.774Z,24.27
2019-04-04T15:39:51.925Z,24.90
2019-04-04T15:42:18.999Z,24.60
2019-04-04T15:44:46.218Z,23.93
2019-04-04T15:47:13.295Z,22.50
2019-04-04T15:49:40.361Z,22.00
2019-04-04T15:52:07.451Z,20.33
2019-04-04T15:54:34.541Z,21.00
2019-04-04T15:57:01.593Z,19.70
2019-04-04T15:59:28.692Z,17.73
2019-04-04T16:01:55.955Z,15.03
2019-04-04T16:04:22.998Z,15.17
2019-04-04T16:06:50.133Z,15.60
2019-04-04T16:09:17.242Z,15.07
2019-04-04T16:11:49.754Z,13.83
2019-04-04T16:14:13.685Z,12.13
2019-04-04T16:16:40.767Z,11.10
2019-04-04T16:19:07.845Z,9.80
2019-04-04T16:21:34.969Z,10.40
2019-04-04T16:24:02.034Z,10.83
2019-04-04T16:26:30.559Z,11.47
2019-04-04T16:28:58.065Z,14.03
2019-04-04T16:31:25.142Z,14.83
2019-04-04T16:33:52.241Z,17.30
2019-04-04T16:36:19.343Z,18.37
2019-04-04T16:38:46.417Z,17.30
2019-04-04T16:41:14.628Z,19.30
2019-04-04T16:43:41.965Z,17.97
2019-04-04T16:46:09.046Z,19.70
2019-04-04T16:48:36.113Z,19.20
2019-04-04T16:51:03.300Z,20.57
2019-04-04T16:53:30.485Z,19.83
2019-04-04T16:55:57.556Z,20.77
2019-04-04T16:58:24.817Z,20.83
2019-04-04T17:00:51.882Z,20.40
2019-04-04T17:03:18.986Z,22.73
2019-04-04T17:05:46.029Z,20.50
2019-04-04T17:08:13.214Z,21.63
2019-04-04T17:10:40.585Z,20.37
2019-04-04T17:13:07.662Z,20.40
2019-04-04T17:15:34.831Z,20.90
2019-04-04T17:18:01.924Z,19.23
2019-04-04T17:20:28.995Z,21.03
2019-04-04T17:22:56.730Z,19.93
2019-04-04T17:25:23.891Z,20.90
2019-04-04T17:27:50.972Z,19.70
2019-04-04T17:30:18.669Z,19.83
2019-04-04T17:32:48.429Z,21.20
2019-04-04T17:35:14.868Z,20.37
2019-04-04T17:37:49.404Z,19.43
2019-04-04T17:40:16.809Z,21.03
2019-04-04T17:42:44.056Z,19.17
2019-04-04T17:45:11.712Z,21.13
2019-04-04T17:47:38.927Z,19.97
2019-04-04T17:50:08.524Z,21.73
2019-04-04T17:52:35.598Z,23.53
2019-04-04T17:55:03.328Z,22.20
2019-04-04T17:57:30.514Z,21.47
2019-04-04T17:59:57.582Z,24.13
2019-04-04T18:02:26.496Z,22.97
2019-04-04T18:04:53.610Z,23.00
2019-04-04T18:07:20.766Z,23.03
2019-04-04T18:09:47.891Z,22.60
2019-04-04T18:12:17.029Z,21.93
2019-04-04T18:14:44.334Z,21.27
2019-04-04T18:17:11.405Z,21.00
2019-04-04T18:19:47.836Z,21.93
2019-04-04T18:22:15.064Z,20.63
2019-04-04T18:24:42.131Z,22.50
2019-04-04T18:27:09.220Z,22.47
2019-04-04T18:29:36.316Z,21.57
2019-04-04T18:32:03.414Z,24.77
2019-04-04T18:34:30.601Z,24.73
2019-04-04T18:36:58.967Z,22.80
2019-04-04T18:39:26.608Z,23.90
2019-04-04T18:41:53.909Z,24.50
2019-04-04T18:44:21.050Z,24.90
2019-04-04T18:46:48.381Z,23.80
2019-04-04T18:49:15.460Z,22.90
2019-04-04T18:51:42.598Z,25.37
2019-04-04T18:54:09.758Z,25.70
2019-04-04T18:56:36.830Z,26.53
2019-04-04T18:59:04.005Z,26.27
2019-04-04T19:01:31.059Z,26.73
2019-04-04T19:03:58.414Z,26.20
2019-04-04T19:06:25.552Z,25.53
2019-04-04T19:08:59.692Z,25.60
2019-04-04T19:11:26.955Z,27.90
2019-04-04T19:13:54.307Z,27.53
2019-04-04T19:16:21.663Z,27.77
2019-04-04T19:18:48.791Z,27.60
2019-04-04T19:21:16.468Z,27.70
2019-04-04T19:23:49.397Z,29.33
2019-04-04T19:26:13.621Z,26.70
2019-04-04T19:28:41.150Z,28.00
2019-04-04T19:31:08.529Z,29.17
2019-04-04T19:33:35.612Z,26.77
2019-04-04T19:36:02.977Z,29.50
2019-04-04T19:38:30.019Z,28.03
2019-04-04T19:40:57.206Z,28.30
2019-04-04T19:43:25.425Z,27.40
2019-04-04T19:45:52.590Z,30.03
2019-04-04T19:48:19.666Z,30.90
2019-04-04T19:50:47.118Z,31.10
2019-04-04T19:53:14.401Z,30.13
2019-04-04T19:55:42.518Z,30.60
2019-04-04T19:58:09.879Z,32.20
2019-04-04T20:00:39.421Z,31.47
2019-04-04T20:03:06.587Z,30.53
2019-04-04T20:05:33.711Z,29.47
2019-04-04T20:08:01.325Z,31.77
2019-04-04T20:10:28.478Z,34.27
2019-04-04T20:13:10.988Z,27.20
2019-04-04T20:15:38.089Z,27.10
2019-04-04T20:18:05.164Z,26.17
2019-04-04T20:20:32.350Z,28.37
2019-04-04T20:22:59.491Z,31.27
2019-04-04T20:25:26.739Z,28.77
2019-04-04T20:27:55.167Z,30.43
2019-04-04T20:30:35.311Z,29.37
2019-04-04T20:33:02.529Z,30.47
2019-04-04T20:35:30.845Z,31.37
2019-04-04T20:37:57.947Z,27.07
2019-04-04T20:40:25.063Z,24.40
2019-04-04T20:42:52.171Z,32.27
2019-04-04T20:45:19.947Z,29.13
2019-04-04T20:47:47.005Z,34.57
2019-04-04T20:50:14.134Z,35.20
2019-04-04T20:52:41.402Z,26.27
2019-04-04T20:55:08.475Z,26.93
2019-04-04T20:57:35.586Z,28.97
2019-04-04T21:00:03.150Z,28.40
2019-04-04T21:02:30.566Z,32.63
2019-04-04T21:04:57.770Z,33.00
2019-04-04T21:07:25.467Z,37.93
2019-04-04T21:09:52.978Z,36.33
2019-04-04T21:12:20.855Z,38.07
2019-04-04T21:14:48.029Z,36.70
2019-04-04T21:17:18.754Z,38.60
2019-04-04T21:19:45.852Z,39.30
2019-04-04T21:22:26.575Z,27.17
2019-04-04T21:24:42.248Z,27.73
2019-04-04T21:27:09.466Z,29.40
2019-04-04T21:29:36.556Z,32.00
2019-04-04T21:32:05.681Z,34.93
2019-04-04T21:34:32.967Z,38.80
2019-04-04T21:37:00.041Z,34.77
2019-04-04T21:39:29.698Z,37.60
2019-04-04T21:41:56.310Z,37.97
2019-04-04T21:44:23.813Z,37.13
2019-04-04T21:46:50.807Z,39.97
2019-04-04T21:49:21.644Z,39.30
2019-04-04T21:51:48.996Z,40.10
2019-04-04T21:54:16.097Z,37.97
2019-04-04T21:56:43.229Z,41.20
2019-04-04T21:59:12.500Z,39.23
2019-04-04T22:01:39.929Z,39.33
2019-04-04T22:04:08.080Z,38.87
2019-04-04T22:06:35.379Z,40.30
2019-04-04T22:09:05.060Z,32.67
2019-04-04T22:11:32.164Z,31.43
2019-04-04T22:14:00.041Z,37.70
2019-04-04T22:16:27.132Z,37.57
2019-04-04T22:18:54.236Z,41.20
2019-04-04T22:21:21.492Z,39.10
2019-04-04T22:23:48.551Z,41.63
2019-04-04T22:26:15.929Z,39.63
2019-04-04T22:28:43.123Z,39.73
2019-04-04T22:31:11.809Z,38.90
2019-04-04T22:33:38.866Z,38.17
2019-04-04T22:36:05.957Z,37.73
2019-04-04T22:38:33.272Z,37.77
2019-04-04T22:41:00.331Z,39.83
2019-04-04T22:43:27.467Z,40.33
2019-04-04T22:45:54.554Z,40.67
2019-04-04T22:48:21.857Z,38.43
2019-04-04T22:50:49.093Z,40.27
2019-04-04T22:53:16.273Z,40.13
2019-04-04T22:55:44.301Z,33.30
2019-04-04T22:58:11.393Z,37.47
2019-04-04T23:00:38.758Z,38.73
2019-04-04T23:03:06.833Z,34.50
2019-04-04T23:05:34.636Z,33.67
2019-04-04T23:08:01.995Z,35.30
2019-04-04T23:10:30.826Z,32.40
2019-04-04T23:12:58.286Z,34.53
2019-04-04T23:15:25.323Z,31.47
2019-04-04T23:17:52.434Z,34.57
2019-04-04T23:20:19.526Z,36.77
2019-04-04T23:22:52.849Z,34.10
2019-04-04T23:25:15.628Z,34.87
2019-04-04T23:27:42.794Z,36.47
2019-04-04T23:30:18.190Z,37.83
2019-04-04T23:32:45.485Z,35.17
2019-04-04T23:35:12.547Z,31.80
2019-04-04T23:37:41.422Z,32.87
2019-04-04T23:40:08.762Z,34.63
2019-04-04T23:42:35.944Z,36.63
2019-04-04T23:45:04.077Z,36.30
2019-04-04T23:47:41.931Z,35.43
2019-04-04T23:50:00.179Z,37.10
2019-04-04T23:52:29.281Z,37.80
2019-04-04T23:55:14.785Z,38.60
2019-04-04T23:57:42.017Z,36.73
